Time;durP1;ratioP1;P1;durP2;ratioP2;P2;SDS_P1;SDS_P2;PMS_P1;PMS_P2;Temp;Humidity;BMP_temperature;BMP_pressure;BME280_temperature;BME280_humidity;BME280_pressure;Samples;Min_cycle;Max_cycle;Signal;HPM_P1;HPM_P2
2021/10/31 00:01:15;;;;;;;2.37;2.17;;;18.40;99.90;;;18.67;52.68;100302.56;4986756;27;99530;-43
2021/10/31 00:03:41;;;;;;;2.50;2.30;;;18.40;99.90;;;18.66;52.81;100303.53;4973182;28;97491;-47
2021/10/31 00:06:07;;;;;;;4.20;3.80;;;18.40;99.90;;;18.63;52.67;100313.53;4954545;27;97943;-43
2021/10/31 00:08:33;;;;;;;3.93;3.63;;;18.30;99.90;;;18.60;52.87;100314.63;4972672;28;99146;-45
2021/10/31 00:11:01;;;;;;;2.80;2.37;;;18.20;99.90;;;18.55;53.27;100313.28;4950887;28;98125;-47
2021/10/31 00:13:27;;;;;;;2.57;2.27;;;18.20;99.90;;;18.49;53.30;100311.88;4959750;28;100501;-46
2021/10/31 00:15:53;;;;;;;5.20;4.67;;;18.10;99.90;;;18.44;53.08;100316.72;4948935;28;97709;-45
2021/10/31 00:18:18;;;;;;;6.87;4.77;;;18.00;99.90;;;18.44;53.32;100320.25;4949527;28;99716;-46
2021/10/31 00:20:44;;;;;;;3.60;3.30;;;18.00;99.90;;;18.41;53.54;100316.97;4957035;28;101204;-50
2021/10/31 00:23:11;;;;;;;2.63;2.43;;;17.90;99.90;;;18.38;53.92;100317.19;4953415;28;100107;-43
2021/10/31 00:25:37;;;;;;;5.43;4.83;;;17.90;99.90;;;18.37;53.58;100328.81;4957424;28;98489;-48
2021/10/31 00:28:03;;;;;;;4.57;4.10;;;17.90;99.90;;;18.36;53.86;100321.75;4966010;28;100227;-46
2021/10/31 00:30:28;;;;;;;3.63;3.27;;;17.90;99.90;;;18.35;53.72;100317.41;4961878;27;104219;-47
2021/10/31 00:32:54;;;;;;;3.33;2.37;;;17.90;99.90;;;18.35;53.70;100320.06;4959021;28;97625;-45
2021/10/31 00:35:20;;;;;;;4.13;3.30;;;17.90;99.90;;;18.32;53.66;100318.47;4956059;28;98867;-46
2021/10/31 00:37:46;;;;;;;3.83;2.93;;;17.90;99.90;;;18.34;53.99;100329.03;4968450;27;99370;-47
2021/10/31 00:40:12;;;;;;;3.13;2.47;;;17.90;99.90;;;18.32;53.69;100325.63;4947997;28;99154;-46
2021/10/31 00:42:40;;;;;;;2.83;2.53;;;17.90;99.90;;;18.34;53.61;100315.69;4971646;28;98611;-45
2021/10/31 00:45:07;;;;;;;2.50;2.30;;;17.90;99.90;;;18.34;53.77;100315.69;4965305;27;97111;-47
2021/10/31 00:47:32;;;;;;;3.13;2.83;;;17.90;99.90;;;18.35;53.90;100323.59;4959463;28;100127;-47
2021/10/31 00:49:59;;;;;;;2.70;2.50;;;18.00;99.90;;;18.37;53.90;100326.13;4971335;27;100209;-46
2021/10/31 00:52:28;;;;;;;2.20;2.00;;;18.00;99.90;;;18.39;53.65;100318.91;4976818;28;99999;-48
2021/10/31 00:54:56;;;;;;;5.60;3.63;;;18.00;99.90;;;18.40;53.61;100325.94;4955415;27;99084;-44
2021/10/31 00:57:23;;;;;;;2.53;2.23;;;18.00;99.90;;;18.40;53.74;100320.59;4953679;28;100552;-47
2021/10/31 00:59:49;;;;;;;2.20;2.00;;;18.10;99.90;;;18.41;53.62;100325.81;4952633;28;102940;-46
2021/10/31 01:02:16;;;;;;;2.23;2.03;;;18.10;99.90;;;18.44;53.56;100327.41;4960253;28;110205;-47
2021/10/31 01:04:51;;;;;;;2.10;1.90;;;18.10;99.90;;;18.46;53.51;100332.63;4967368;28;98536;-43
2021/10/31 01:07:52;;;;;;;2.30;2.10;;;18.10;99.90;;;18.44;53.65;100327.41;4984408;27;98139;-45
2021/10/31 01:11:14;;;;;;;2.30;2.10;;;18.10;99.90;;;18.44;53.50;100338.09;4967047;27;98593;-47
2021/10/31 01:14:20;;;;;;;3.63;2.17;;;18.10;99.90;;;18.40;53.52;100325.94;4968306;27;98738;-47
2021/10/31 01:17:29;;;;;;;3.33;3.03;;;18.00;99.90;;;18.37;53.54;100331.47;4969088;27;97019;-44
2021/10/31 01:20:25;;;;;;;2.50;2.30;;;18.00;99.90;;;18.37;53.54;100326.13;4965647;28;102041;-48
2021/10/31 01:23:13;;;;;;;2.53;2.00;;;18.00;99.90;;;18.38;53.61;100322.53;4962779;28;104237;-46
2021/10/31 01:26:03;;;;;;;3.10;2.50;;;18.00;99.90;;;18.35;53.38;100325.41;4965164;28;100129;-49
2021/10/31 01:28:49;;;;;;;2.20;1.93;;;18.00;99.90;;;18.33;53.56;100319.31;4968678;27;100358;-48
2021/10/31 01:31:26;;;;;;;2.37;2.17;;;17.90;99.90;;;18.30;53.88;100323.06;4982883;27;98393;-44
2021/10/31 01:34:26;;;;;;;2.40;2.20;;;17.90;99.90;;;18.28;53.73;100311.66;4957860;27;100269;-46
2021/10/31 01:37:33;;;;;;;2.57;2.17;;;17.90;99.90;;;18.24;54.06;100320.03;4948700;28;97636;-44
2021/10/31 01:40:16;;;;;;;3.17;2.83;;;17.80;99.90;;;18.22;53.96;100316.56;4910698;28;99426;-49
2021/10/31 01:43:06;;;;;;;2.50;2.30;;;17.80;99.90;;;18.21;53.92;100320.22;4974759;28;104390;-49
2021/10/31 01:45:59;;;;;;;2.60;2.40;;;17.70;99.90;;;18.20;54.19;100322.03;4958506;28;103120;-48
2021/10/31 01:48:42;;;;;;;2.10;1.90;;;17.70;99.90;;;18.21;54.17;100320.22;4980797;27;99810;-48
2021/10/31 01:51:20;;;;;;;2.23;2.03;;;17.70;99.90;;;18.22;54.34;100316.56;4943403;28;98726;-44
2021/10/31 01:54:04;;;;;;;2.00;1.87;;;17.80;99.90;;;18.31;53.78;100321.25;4960613;27;101241;-44
2021/10/31 01:56:34;;;;;;;2.30;2.10;;;17.90;99.90;;;18.38;53.68;100318.03;4972114;27;101454;-45
2021/10/31 01:59:08;;;;;;;3.47;2.10;;;18.10;99.90;;;18.51;53.53;100322.47;4960832;27;99714;-46
2021/10/31 02:01:37;;;;;;;2.63;2.17;;;18.30;99.90;;;18.59;52.95;100318.25;4970415;28;97545;-45
2021/10/31 02:04:08;;;;;;;2.07;1.93;;;18.40;99.90;;;18.68;52.75;100320.28;4969277;27;97998;-46
2021/10/31 02:06:41;;;;;;;1.83;1.73;;;18.50;99.90;;;18.72;52.59;100327.09;4947882;28;98986;-42
2021/10/31 02:09:08;;;;;;;2.33;2.13;;;18.50;99.90;;;18.83;52.37;100337.00;4953261;28;99020;-46
2021/10/31 02:11:36;;;;;;;6.70;6.10;;;18.70;99.90;;;18.78;52.22;100339.13;4953532;28;100244;-49
2021/10/31 02:14:04;;;;;;;2.37;2.17;;;18.70;99.50;;;18.75;52.82;100344.72;4947493;27;100908;-43
2021/10/31 02:16:33;;;;;;;2.10;1.90;;;18.50;99.90;;;18.73;52.80;100349.34;4974052;28;97696;-45
2021/10/31 02:19:06;;;;;;;3.03;2.00;;;18.40;99.90;;;18.77;52.48;100352.63;4973046;28;98296;-47
2021/10/31 02:21:38;;;;;;;2.10;1.90;;;18.50;99.90;;;18.84;52.45;100345.88;4980801;27;99076;-48
2021/10/31 02:24:08;;;;;;;2.27;2.07;;;18.70;99.90;;;18.92;52.18;100348.78;4968414;27;100597;-45
2021/10/31 02:26:38;;;;;;;2.13;1.93;;;18.80;99.90;;;18.94;52.18;100352.19;4957092;28;98936;-48
2021/10/31 02:29:08;;;;;;;2.00;1.80;;;18.80;99.90;;;18.99;52.13;100350.06;4976695;27;97465;-49
2021/10/31 02:31:36;;;;;;;2.73;1.87;;;18.90;99.80;;;19.04;52.06;100353.22;4968479;28;97883;-46
2021/10/31 02:34:05;;;;;;;2.20;2.00;;;18.90;99.60;;;19.01;51.83;100348.13;4950915;28;101339;-43
2021/10/31 02:36:33;;;;;;;2.20;2.00;;;18.90;99.30;;;18.93;51.91;100346.00;4954590;28;98333;-45
2021/10/31 02:39:01;;;;;;;1.93;1.83;;;18.80;99.50;;;18.86;52.33;100349.28;4948948;28;97657;-50
2021/10/31 02:41:30;;;;;;;2.30;1.83;;;18.60;99.90;;;18.84;52.27;100351.22;4973468;28;97782;-46
2021/10/31 02:43:56;;;;;;;2.13;1.93;;;18.50;99.90;;;18.84;52.33;100344.03;4974287;27;100587;-46
2021/10/31 02:46:25;;;;;;;2.77;1.93;;;18.60;99.90;;;18.91;52.33;100341.75;4974216;28;99247;-44
2021/10/31 02:48:52;;;;;;;2.20;2.00;;;18.70;99.90;;;18.92;52.07;100338.97;4970653;28;97505;-48
2021/10/31 02:51:25;;;;;;;2.03;1.83;;;18.80;99.70;;;18.89;52.10;100346.38;4979401;27;98327;-48
2021/10/31 02:54:00;;;;;;;2.10;1.90;;;18.70;99.30;;;18.81;52.30;100351.44;4975203;28;99855;-46
2021/10/31 02:56:34;;;;;;;1.90;1.70;;;18.60;99.80;;;18.78;52.19;100357.00;4977654;27;103976;-52
2021/10/31 02:59:48;;;;;;;2.20;2.00;;;18.50;99.90;;;18.75;52.52;100360.75;4958175;27;97348;-48
2021/10/31 03:02:16;;;;;;;2.60;2.30;;;18.50;99.90;;;18.68;52.61;100367.53;4952069;28;97994;-45
2021/10/31 03:04:43;;;;;;;1.93;1.77;;;18.40;99.80;;;18.63;52.80;100365.19;4983796;28;100781;-47
2021/10/31 03:07:10;;;;;;;2.07;1.87;;;18.30;99.90;;;18.58;52.74;100355.78;4966074;28;99060;-47
2021/10/31 03:09:36;;;;;;;2.63;2.00;;;18.20;99.90;;;18.57;52.85;100357.59;4993176;28;96751;-44
2021/10/31 03:12:06;;;;;;;3.30;3.03;;;18.20;99.90;;;18.56;52.72;100363.91;4993011;27;99472;-47
2021/10/31 03:14:33;;;;;;;2.13;1.97;;;18.20;99.90;;;18.51;53.02;100359.84;4970586;28;98438;-44
2021/10/31 03:16:59;;;;;;;2.37;2.17;;;18.20;99.90;;;18.51;53.23;100357.16;4974942;28;99127;-47
2021/10/31 03:19:25;;;;;;;2.60;1.80;;;18.20;99.90;;;18.51;53.25;100360.69;4965160;28;97236;-44
2021/10/31 03:21:51;;;;;;;2.03;1.83;;;18.20;99.90;;;18.55;52.96;100359.53;4991277;28;115304;-44
2021/10/31 03:24:16;;;;;;;1.70;1.60;;;18.20;99.90;;;18.60;53.06;100365.38;4987439;28;100009;-44
2021/10/31 03:26:42;;;;;;;2.40;2.00;;;18.40;99.90;;;18.65;52.86;100351.69;4976156;28;102061;-46
2021/10/31 03:29:09;;;;;;;1.90;1.70;;;18.40;99.90;;;18.66;52.60;100359.63;4969838;27;97746;-44
2021/10/31 03:31:35;;;;;;;2.23;1.80;;;18.50;99.90;;;18.65;52.64;100352.56;4985935;28;97015;-45
2021/10/31 03:34:01;;;;;;;2.60;1.83;;;18.40;99.90;;;18.66;52.85;100348.94;4975081;28;99132;-49
2021/10/31 03:36:27;;;;;;;1.73;1.63;;;18.40;99.90;;;18.68;52.69;100346.16;4973677;28;103475;-44
2021/10/31 03:38:53;;;;;;;2.60;2.10;;;18.40;99.90;;;18.65;52.67;100347.22;4988473;28;98367;-44
2021/10/31 03:41:19;;;;;;;2.20;1.97;;;18.40;99.90;;;18.61;53.07;100350.19;4989745;27;97322;-45
2021/10/31 03:43:44;;;;;;;3.33;2.20;;;18.30;99.90;;;18.51;53.01;100350.00;4988269;28;99400;-48
2021/10/31 03:46:10;;;;;;;1.90;1.80;;;18.10;99.90;;;18.40;53.37;100352.63;4984347;28;98250;-46
2021/10/31 03:48:36;;;;;;;2.03;1.60;;;17.90;99.90;;;18.31;53.88;100350.63;4977119;28;98842;-43
2021/10/31 03:51:02;;;;;;;2.13;2.00;;;17.80;99.90;;;18.28;53.91;100353.53;4995583;27;97060;-46
2021/10/31 03:53:28;;;;;;;1.70;1.60;;;17.80;99.90;;;18.26;53.85;100344.78;5006922;27;103785;-45
2021/10/31 03:55:54;;;;;;;1.73;1.63;;;17.70;99.90;;;18.19;54.20;100339.00;4987921;28;103149;-45
2021/10/31 03:58:19;;;;;;;1.90;1.70;;;17.70;99.90;;;18.12;54.24;100346.63;4978311;28;97534;-44
2021/10/31 04:00:46;;;;;;;2.30;2.07;;;17.60;99.90;;;18.08;54.49;100331.81;4988481;28;97591;-46
2021/10/31 04:03:12;;;;;;;2.63;1.90;;;17.60;99.90;;;18.05;54.43;100337.34;5012079;27;100711;-46
2021/10/31 04:05:38;;;;;;;2.47;2.27;;;17.50;99.90;;;18.02;54.56;100331.38;5013075;27;98171;-47
2021/10/31 04:08:05;;;;;;;1.60;1.50;;;17.50;99.90;;;18.00;54.56;100336.81;4993422;28;96820;-45
2021/10/31 04:10:32;;;;;;;1.70;1.60;;;17.50;99.90;;;17.98;54.58;100333.41;4990892;28;96884;-46
2021/10/31 04:12:57;;;;;;;1.80;1.70;;;17.50;99.90;;;17.98;54.63;100336.09;4995168;27;100460;-43
2021/10/31 04:15:23;;;;;;;2.23;1.70;;;17.50;99.90;;;18.01;54.48;100341.19;4990432;28;111695;-43
2021/10/31 04:17:49;;;;;;;1.80;1.70;;;17.50;99.90;;;18.01;54.66;100333.19;4990248;28;97763;-44
2021/10/31 04:20:16;;;;;;;1.80;1.70;;;17.60;99.90;;;18.03;54.70;100333.94;4993261;28;99997;-46
2021/10/31 04:22:45;;;;;;;1.87;1.53;;;17.60;99.90;;;18.06;54.42;100330.19;4996482;27;96867;-45
2021/10/31 04:25:11;;;;;;;1.70;1.50;;;17.60;99.90;;;18.08;54.32;100329.13;4993061;27;97354;-44
2021/10/31 04:27:37;;;;;;;1.80;1.70;;;17.70;99.90;;;18.11;54.31;100330.72;4996466;28;99013;-46
2021/10/31 04:30:06;;;;;;;1.70;1.60;;;17.70;99.90;;;18.13;54.16;100334.13;4994267;27;98126;-46
2021/10/31 04:32:32;;;;;;;2.13;1.63;;;17.70;99.90;;;18.18;54.33;100331.13;4990920;28;103911;-43
2021/10/31 04:34:58;;;;;;;1.87;1.67;;;17.80;99.90;;;18.22;53.92;100332.59;4991174;28;97635;-43
2021/10/31 04:37:25;;;;;;;2.07;1.40;;;17.90;99.90;;;18.29;53.98;100328.53;4988021;28;97480;-44
2021/10/31 04:39:51;;;;;;;1.53;1.43;;;18.00;99.90;;;18.33;53.66;100325.50;4995924;28;97022;-42
2021/10/31 04:42:16;;;;;;;1.50;1.40;;;18.00;99.90;;;18.39;53.32;100325.09;4990018;28;97096;-45
2021/10/31 04:44:42;;;;;;;2.10;1.70;;;18.10;99.90;;;18.51;53.41;100320.63;4971053;28;97769;-44
2021/10/31 04:47:08;;;;;;;1.43;1.20;;;18.30;99.90;;;18.63;52.98;100317.09;4971186;28;97604;-48
2021/10/31 04:49:35;;;;;;;1.40;1.30;;;18.50;99.90;;;18.75;52.61;100309.13;4980357;28;97128;-43
2021/10/31 04:52:02;;;;;;;1.50;1.40;;;18.60;99.90;;;18.85;52.39;100310.16;4970675;28;100495;-43
2021/10/31 04:54:28;;;;;;;1.70;1.60;;;18.70;99.90;;;18.89;51.95;100306.28;4970400;28;101155;-43
2021/10/31 04:56:54;;;;;;;1.60;1.50;;;18.80;99.80;;;18.90;52.09;100307.97;4972849;28;98216;-45
2021/10/31 04:59:20;;;;;;;2.20;2.00;;;18.80;99.70;;;18.91;52.00;100309.69;4972659;28;96782;-44
2021/10/31 05:01:46;;;;;;;2.03;1.47;;;18.80;99.10;;;18.90;51.87;100319.53;4973527;28;100450;-44
2021/10/31 05:04:12;;;;;;;2.00;1.80;;;18.80;99.80;;;18.84;52.29;100316.47;4977519;28;97469;-45
2021/10/31 05:06:39;;;;;;;1.40;1.30;;;18.70;99.20;;;18.78;52.29;100314.25;4993476;28;97219;-44
2021/10/31 05:09:05;;;;;;;1.60;1.50;;;18.60;99.90;;;18.72;52.70;100310.22;4991491;28;96929;-46
2021/10/31 05:11:30;;;;;;;1.43;1.30;;;18.50;99.90;;;18.70;52.59;100307.66;4994731;28;99563;-47
2021/10/31 05:13:56;;;;;;;1.40;1.30;;;18.40;99.90;;;18.71;52.82;100309.38;4997406;27;105980;-43
2021/10/31 05:16:22;;;;;;;1.30;1.20;;;18.50;99.90;;;18.75;52.58;100303.78;4976913;28;96985;-45
2021/10/31 05:18:48;;;;;;;1.43;1.30;;;18.50;99.90;;;18.82;52.21;100310.41;4967974;28;97476;-47
2021/10/31 05:21:14;;;;;;;1.40;1.30;;;18.60;99.90;;;18.87;52.45;100313.56;4970059;28;114276;-43
2021/10/31 05:23:39;;;;;;;1.73;1.63;;;18.70;99.90;;;18.87;52.19;100309.06;4971296;28;97327;-45
2021/10/31 05:26:05;;;;;;;1.47;1.37;;;18.70;99.80;;;18.89;52.16;100301.78;4976883;27;96712;-43
2021/10/31 05:28:31;;;;;;;1.47;1.37;;;18.70;99.90;;;18.95;52.19;100293.31;4993928;28;97778;-47
2021/10/31 05:30:58;;;;;;;1.20;1.10;;;18.80;99.80;;;19.02;51.71;100296.38;4995174;28;98826;-43
2021/10/31 05:33:24;;;;;;;1.43;1.20;;;18.90;99.60;;;19.07;51.65;100278.13;4986373;28;96891;-44
2021/10/31 05:35:51;;;;;;;1.80;1.40;;;19.00;99.40;;;19.12;51.28;100281.34;4988657;28;98762;-47
2021/10/31 05:38:20;;;;;;;1.30;1.20;;;19.10;99.30;;;19.13;51.55;100283.03;5000267;27;97069;-47
2021/10/31 05:40:50;;;;;;;1.60;1.50;;;19.10;99.30;;;19.13;51.21;100272.34;4975209;27;98596;-45
2021/10/31 05:43:17;;;;;;;1.53;1.43;;;19.10;99.20;;;19.11;51.19;100268.94;4967157;28;99155;-47
2021/10/31 05:45:43;;;;;;;1.20;1.10;;;19.00;98.90;;;19.06;51.63;100276.44;4970534;28;97229;-44
2021/10/31 05:48:10;;;;;;;1.40;1.23;;;19.00;99.30;;;19.04;51.47;100273.03;4966255;28;97495;-43
2021/10/31 05:50:36;;;;;;;1.37;1.27;;;18.90;99.50;;;19.06;51.52;100272.91;4975504;28;98798;-46
2021/10/31 05:53:03;;;;;;;1.20;1.10;;;18.90;99.50;;;19.02;51.51;100283.84;4997033;27;98394;-47
2021/10/31 05:55:29;;;;;;;1.50;1.37;;;18.90;99.10;;;19.00;51.85;100283.13;5013218;27;97238;-47
2021/10/31 05:57:55;;;;;;;1.33;1.23;;;18.80;99.50;;;18.98;51.53;100271.69;5009772;27;97307;-44
2021/10/31 06:00:21;;;;;;;1.43;1.27;;;18.80;99.30;;;18.99;51.60;100264.53;4993297;28;97889;-44
2021/10/31 06:02:48;;;;;;;1.33;1.23;;;18.90;99.20;;;18.98;51.62;100266.34;4994146;28;99997;-43
2021/10/31 06:05:15;;;;;;;1.30;1.20;;;18.80;99.50;;;19.00;51.69;100268.91;4974870;27;97045;-46
2021/10/31 06:07:41;;;;;;;1.83;1.53;;;18.80;99.60;;;18.99;51.80;100270.72;4990851;28;97060;-45
2021/10/31 06:10:09;;;;;;;1.47;1.37;;;18.90;99.20;;;19.01;51.63;100262.59;4987440;27;99751;-44
2021/10/31 06:12:35;;;;;;;3.23;2.90;;;18.90;98.90;;;18.89;50.26;100260.84;4988445;28;97144;-46
2021/10/31 06:15:05;;;;;;;1.30;1.20;;;18.70;98.20;;;18.82;51.99;100259.63;4973006;28;97007;-46
2021/10/31 06:17:32;;;;;;;2.63;1.60;;;18.50;99.90;;;18.73;52.21;100258.50;4976761;28;97311;-43
2021/10/31 06:19:58;;;;;;;1.10;1.00;;;18.40;99.90;;;18.75;52.22;100250.38;4977947;28;98590;-44
2021/10/31 06:22:23;;;;;;;1.97;1.37;;;18.50;99.90;;;18.79;52.12;100251.81;4973601;28;97123;-50
2021/10/31 06:24:49;;;;;;;1.20;1.10;;;18.60;99.90;;;18.86;51.95;100247.72;4999266;27;100257;-45
2021/10/31 06:27:15;;;;;;;0.90;0.90;;;18.70;99.80;;;18.92;52.02;100257.94;4965665;28;98335;-47
2021/10/31 06:29:41;;;;;;;1.07;0.97;;;18.80;99.70;;;18.98;51.87;100247.66;4980439;28;111545;-46
2021/10/31 06:32:07;;;;;;;2.33;1.20;;;18.90;99.50;;;19.06;51.66;100243.50;4960075;28;98171;-46
2021/10/31 06:34:33;;;;;;;1.50;1.40;;;19.00;99.30;;;19.08;50.92;100253.13;4980920;28;97541;-44
2021/10/31 06:36:59;;;;;;;1.07;0.97;;;19.10;98.30;;;19.05;51.42;100249.84;4986114;28;96889;-43
2021/10/31 06:39:24;;;;;;;1.20;1.10;;;19.00;99.00;;;19.05;51.67;100250.69;4984639;28;99084;-46
2021/10/31 06:41:50;;;;;;;1.53;1.43;;;19.00;99.40;;;19.04;51.88;100251.66;4993578;27;97712;-42
2021/10/31 06:44:16;;;;;;;1.30;1.10;;;19.00;99.40;;;19.04;51.85;100246.31;4987225;28;96803;-42
2021/10/31 06:46:42;;;;;;;1.00;1.00;;;19.00;99.50;;;19.03;51.52;100244.59;4995088;28;97005;-45
2021/10/31 06:49:10;;;;;;;1.70;1.30;;;18.90;99.20;;;19.00;51.76;100244.84;4991144;28;97708;-45
2021/10/31 06:51:36;;;;;;;1.30;1.20;;;18.90;99.00;;;19.00;52.07;100234.16;4988991;28;98521;-45
2021/10/31 06:54:02;;;;;;;2.53;1.27;;;18.80;99.70;;;19.01;51.89;100228.69;4987057;28;97585;-49
2021/10/31 06:56:28;;;;;;;1.07;1.03;;;18.90;99.60;;;19.01;51.86;100225.16;4981855;28;97034;-44
2021/10/31 06:58:54;;;;;;;1.30;1.20;;;18.90;99.30;;;18.99;51.74;100237.81;4982485;28;97340;-45
2021/10/31 07:01:21;;;;;;;1.67;1.30;;;18.80;99.10;;;18.97;52.18;100227.25;4983042;28;99363;-50
2021/10/31 07:03:48;;;;;;;1.30;1.20;;;18.80;99.80;;;18.99;52.02;100229.78;4982155;27;97106;-43
2021/10/31 07:06:16;;;;;;;1.57;1.30;;;18.80;99.70;;;18.99;51.93;100232.47;4962476;27;96991;-46
2021/10/31 07:08:43;;;;;;;1.07;1.03;;;18.80;99.80;;;19.04;51.91;100230.28;4987163;28;98544;-44
2021/10/31 07:11:09;;;;;;;1.20;1.10;;;18.90;99.70;;;19.10;51.70;100221.78;4982320;28;98623;-46
2021/10/31 07:13:35;;;;;;;1.20;1.10;;;19.00;99.50;;;19.15;51.74;100211.59;4978991;28;96807;-48
2021/10/31 07:16:01;;;;;;;1.10;1.00;;;19.10;99.20;;;19.20;51.66;100209.38;4983930;28;96671;-45
2021/10/31 07:18:27;;;;;;;1.23;1.13;;;19.20;99.20;;;19.26;51.36;100213.41;4979783;28;101557;-45
2021/10/31 07:20:53;;;;;;;1.20;1.10;;;19.30;99.10;;;19.27;51.46;100205.28;4975947;27;97657;-45
2021/10/31 07:23:19;;;;;;;1.20;1.10;;;19.30;99.00;;;19.32;51.28;100207.56;4980427;28;97118;-46
2021/10/31 07:25:44;;;;;;;1.03;1.03;;;19.40;99.00;;;19.33;51.19;100193.22;4971357;28;98377;-47
2021/10/31 07:28:10;;;;;;;2.20;1.10;;;19.40;99.00;;;19.37;51.30;100197.34;4967007;28;98665;-45
2021/10/31 07:30:36;;;;;;;1.20;1.10;;;19.40;98.80;;;19.38;51.12;100190.19;4986719;28;97183;-43
2021/10/31 07:33:03;;;;;;;1.20;0.97;;;19.40;98.70;;;19.41;51.01;100200.66;4989303;27;97211;-48
2021/10/31 07:35:30;;;;;;;2.37;1.47;;;19.40;98.70;;;19.41;51.08;100189.97;4976607;27;96940;-44
2021/10/31 07:37:56;;;;;;;1.60;1.20;;;19.40;98.60;;;19.39;51.12;100197.25;4980469;28;100401;-43
2021/10/31 07:40:23;;;;;;;1.30;1.20;;;19.40;98.60;;;19.35;51.13;100201.13;4982203;27;101237;-43
2021/10/31 07:42:50;;;;;;;2.10;1.20;;;19.30;98.90;;;19.29;51.22;100197.97;4976416;28;97942;-46
2021/10/31 07:45:17;;;;;;;1.40;1.30;;;19.20;99.00;;;19.23;51.27;100193.09;4968004;28;97274;-44
2021/10/31 07:47:43;;;;;;;2.53;1.70;;;19.10;99.20;;;19.17;51.74;100193.59;4970285;28;102499;-43
2021/10/31 07:50:09;;;;;;;1.40;1.20;;;19.00;99.30;;;19.14;51.44;100177.81;4982934;28;97794;-43
2021/10/31 07:52:42;;;;;;;1.20;1.10;;;19.00;99.30;;;19.11;51.78;100178.06;4994105;28;97217;-43
2021/10/31 07:55:11;;;;;;;2.93;2.63;;;19.00;99.40;;;19.03;51.78;100186.66;4995722;28;97987;-44
2021/10/31 07:57:36;;;;;;;1.77;1.60;;;18.90;99.30;;;18.98;51.85;100193.34;4997455;27;97590;-43
2021/10/31 08:00:05;;;;;;;0.90;0.90;;;18.80;99.60;;;18.92;52.14;100193.81;5000427;28;98574;-48
2021/10/31 08:02:30;;;;;;;1.73;1.20;;;18.70;99.90;;;18.90;52.30;100193.91;4978766;28;97357;-44
2021/10/31 08:04:56;;;;;;;1.37;1.27;;;18.70;99.90;;;18.92;52.07;100188.47;4976520;28;97901;-43
2021/10/31 08:07:28;;;;;;;1.77;1.20;;;18.70;99.80;;;18.89;52.27;100183.34;4978218;28;105263;-47
2021/10/31 08:09:55;;;;;;;2.20;1.43;;;18.70;99.90;;;18.94;52.29;100173.16;4981608;27;102878;-43
2021/10/31 08:12:21;;;;;;;1.40;1.30;;;18.80;99.70;;;18.95;52.08;100182.88;4983625;28;97426;-44
2021/10/31 08:14:47;;;;;;;1.87;1.40;;;18.80;99.70;;;18.97;52.18;100186.31;4994129;28;96791;-46
2021/10/31 08:17:12;;;;;;;1.30;1.20;;;18.80;99.60;;;18.96;52.41;100188.13;4988530;27;99084;-44
2021/10/31 08:19:38;;;;;;;1.63;1.47;;;18.80;99.90;;;18.94;51.75;100186.50;4990001;28;97340;-46
2021/10/31 08:22:04;;;;;;;1.17;1.07;;;18.80;99.60;;;18.88;52.53;100181.66;4986773;28;106605;-47
2021/10/31 08:24:30;;;;;;;2.57;1.90;;;18.70;99.90;;;18.81;52.26;100185.78;4987830;28;105557;-46
2021/10/31 08:26:55;;;;;;;1.33;1.03;;;18.60;99.90;;;18.76;53.16;100177.25;4971154;28;97364;-43
2021/10/31 08:29:23;;;;;;;1.30;1.20;;;18.40;99.90;;;18.69;53.25;100177.75;4973860;28;100941;-46
2021/10/31 08:31:53;;;;;;;1.43;1.20;;;18.40;99.90;;;18.65;53.28;100180.75;4974841;28;96861;-45
2021/10/31 08:34:19;;;;;;;1.77;1.10;;;18.30;99.90;;;18.67;53.37;100179.69;4974216;28;102102;-44
2021/10/31 08:36:44;;;;;;;1.23;1.13;;;18.40;99.90;;;18.73;52.90;100173.00;4992306;28;97664;-43
2021/10/31 08:39:10;;;;;;;1.20;1.10;;;18.50;99.90;;;18.81;52.96;100164.41;4993122;28;96779;-43
2021/10/31 08:41:37;;;;;;;1.50;1.10;;;18.60;99.90;;;18.87;52.60;100156.75;4973067;28;96793;-43
2021/10/31 08:44:05;;;;;;;1.27;1.17;;;18.70;99.90;;;18.94;51.82;100154.44;4977044;28;102872;-45
2021/10/31 08:46:31;;;;;;;1.60;1.47;;;18.90;99.60;;;19.03;52.53;100169.78;4974546;28;103699;-46
2021/10/31 08:48:57;;;;;;;1.47;1.37;;;19.00;99.80;;;19.10;52.08;100149.63;4977830;28;97213;-44
2021/10/31 08:51:25;;;;;;;1.47;1.20;;;19.10;99.70;;;19.16;51.88;100141.09;4990522;28;96907;-43
2021/10/31 08:53:52;;;;;;;1.07;0.97;;;19.20;99.80;;;19.19;51.97;100138.19;4984521;28;97333;-46
2021/10/31 08:56:22;;;;;;;1.53;1.40;;;19.30;99.70;;;19.24;51.83;100146.72;4949822;28;96917;-47
2021/10/31 08:58:49;;;;;;;3.43;2.03;;;19.30;99.20;;;19.29;51.69;100149.84;4961256;28;98260;-47
2021/10/31 09:01:15;;;;;;;1.33;1.23;;;19.40;99.20;;;19.33;51.60;100143.28;4954644;27;99784;-48
2021/10/31 09:03:43;;;;;;;1.50;1.10;;;19.40;99.20;;;19.36;51.54;100135.97;4951535;28;97173;-44
2021/10/31 09:06:11;;;;;;;1.13;0.80;;;19.40;99.50;;;19.37;51.28;100141.19;4942143;28;98524;-45
2021/10/31 09:08:39;;;;;;;4.70;2.67;;;19.40;99.10;;;18.97;53.22;100132.84;4951681;28;99712;-48
2021/10/31 09:11:05;;;;;;;3.90;3.00;;;19.00;99.90;;;18.82;56.13;100134.06;4945145;28;97579;-47
2021/10/31 09:13:31;;;;;;;4.37;3.10;;;18.70;99.90;;;18.69;54.66;100137.69;4949995;28;102657;-48
2021/10/31 09:15:57;;;;;;;4.30;2.93;;;18.40;99.90;;;18.59;55.83;100131.28;4950614;28;100822;-47
2021/10/31 09:18:24;;;;;;;4.77;3.10;;;18.20;99.90;;;18.46;55.12;100116.34;4950467;28;98022;-46
2021/10/31 09:20:51;;;;;;;1.60;1.47;;;18.10;99.90;;;18.48;54.34;100120.59;4953363;28;99151;-46
2021/10/31 09:23:17;;;;;;;2.30;1.40;;;18.10;99.90;;;18.48;54.25;100112.56;4964679;28;98610;-45
2021/10/31 09:25:42;;;;;;;3.30;2.30;;;18.20;99.90;;;18.44;55.33;100103.09;4950660;28;99802;-45
2021/10/31 09:28:08;;;;;;;2.00;1.77;;;18.10;99.90;;;18.45;54.37;100099.47;4949418;27;105156;-45
2021/10/31 09:30:38;;;;;;;3.67;2.80;;;18.10;99.90;;;18.39;58.14;100089.28;4967192;28;97537;-45
2021/10/31 09:33:06;;;;;;;3.03;1.70;;;18.10;99.90;;;18.36;54.98;100085.00;4951114;27;99003;-44
2021/10/31 09:35:36;;;;;;;4.83;3.00;;;18.00;99.90;;;18.42;55.21;100083.69;4951833;28;99172;-47
2021/10/31 09:38:05;;;;;;;4.67;3.10;;;18.10;99.90;;;18.47;55.45;100081.50;4949944;28;98248;-49
2021/10/31 09:40:34;;;;;;;3.07;1.50;;;18.20;99.90;;;18.51;54.17;100061.59;4965314;28;97453;-50
2021/10/31 09:43:01;;;;;;;1.83;1.20;;;18.30;99.90;;;18.62;53.88;100055.41;4965434;28;99114;-46
2021/10/31 09:45:29;;;;;;;1.67;1.57;;;18.40;99.90;;;18.70;53.48;100055.72;4968829;27;103011;-42
2021/10/31 09:47:59;;;;;;;1.67;1.17;;;18.50;99.90;;;18.79;53.51;100044.28;4968723;27;97832;-44
2021/10/31 09:50:28;;;;;;;3.07;2.33;;;18.70;99.90;;;18.91;53.51;100053.16;4966079;27;98918;-44
2021/10/31 09:52:55;;;;;;;2.20;1.50;;;18.90;99.90;;;18.98;53.02;100043.69;4968516;27;98754;-46
2021/10/31 09:55:22;;;;;;;1.40;1.30;;;19.00;99.90;;;19.07;52.46;100036.72;4969553;27;99571;-45
2021/10/31 09:57:48;;;;;;;1.90;1.03;;;19.00;99.90;;;19.14;52.47;100043.31;4970646;28;99948;-47
2021/10/31 10:00:15;;;;;;;3.00;2.13;;;19.10;99.90;;;19.18;52.89;100042.91;4951615;27;97866;-48
2021/10/31 10:05:24;;;;;;;1.23;1.10;;;19.20;99.90;;;19.26;52.18;100037.81;4965662;27;97915;-46
2021/10/31 10:08:17;;;;;;;2.00;1.30;;;19.30;99.90;;;19.31;51.88;100027.59;4947194;28;97988;-44
2021/10/31 10:10:53;;;;;;;3.77;3.10;;;19.30;99.70;;;19.32;52.82;100023.94;4953651;28;98646;-43
2021/10/31 10:13:31;;;;;;;2.50;1.70;;;19.30;99.90;;;19.30;51.99;100014.34;4948637;28;97335;-47
2021/10/31 10:16:36;;;;;;;1.13;1.03;;;19.40;99.70;;;19.30;51.97;100007.16;4947829;28;99825;-46
2021/10/31 10:19:15;;;;;;;1.80;1.40;;;19.40;99.50;;;19.40;52.03;100001.06;4904894;28;102185;-42
2021/10/31 10:21:40;;;;;;;2.20;1.13;;;19.50;99.60;;;19.40;52.07;99995.72;4907149;28;99266;-46